Time;durP1;ratioP1;P1;durP2;ratioP2;P2;SDS_P1;SDS_P2;PMS_P1;PMS_P2;Temp;Humidity;BMP_temperature;BMP_pressure;BME280_temperature;BME280_humidity;BME280_pressure;Samples;Min_cycle;Max_cycle;Signal;HPM_P1;HPM_P2
2022/02/21 00:01:54;;;;;;;3.65;1.17;;;;;;;-145.06;0.00;60892.56;4837631;28;20034;-86
2022/02/21 00:04:32;;;;;;;3.08;1.10;;;;;;;6.14;0.00;60892.56;4840847;28;20029;-88
2022/02/21 00:07:11;;;;;;;1.85;0.70;;;;;;;-145.06;0.00;60892.56;4838044;28;20037;-87
2022/02/21 00:09:50;;;;;;;3.73;1.10;;;;;;;-145.06;0.00;60892.56;4843128;28;20029;-86
2022/02/21 00:12:29;;;;;;;4.15;0.93;;;;;;;-145.06;0.00;60892.56;4834559;28;20280;-86
2022/02/21 00:15:13;;;;;;;1.88;0.88;;;;;;;-145.06;0.00;60892.56;4836907;28;20022;-86
2022/02/21 00:17:53;;;;;;;2.53;0.90;;;;;;;-145.06;0.00;60892.56;4837833;28;20042;-86
2022/02/21 00:20:32;;;;;;;5.55;1.20;;;;;;;-145.06;0.00;60892.56;4832051;28;20030;-86
2022/02/21 00:23:13;;;;;;;2.85;1.00;;;;;;;10.68;0.00;60892.56;4830180;28;20069;-87
2022/02/21 00:25:52;;;;;;;3.08;0.98;;;;;;;-145.06;0.00;60892.56;4843737;28;20041;-87
2022/02/21 00:28:31;;;;;;;4.03;1.03;;;;;;;-145.06;0.00;60892.56;4840374;28;20038;-86
2022/02/21 00:31:11;;;;;;;3.90;1.30;;;;;;;21.08;0.00;60892.56;4839100;28;20042;-86
2022/02/21 00:33:49;;;;;;;2.67;1.00;;;;;;;-145.06;0.00;60892.56;4840016;28;20312;-87
2022/02/21 00:36:28;;;;;;;3.28;1.10;;;;;;;-145.06;0.00;60892.56;4837692;28;20034;-87
2022/02/21 00:39:07;;;;;;;5.30;1.48;;;;;;;-145.06;0.00;60892.56;4837321;28;20365;-87
2022/02/21 00:41:46;;;;;;;4.47;1.08;;;;;;;-145.06;0.00;60892.56;4847915;28;20041;-87
2022/02/21 00:44:25;;;;;;;3.53;1.10;;;;;;;6.58;0.00;60892.56;4840340;28;20514;-88
2022/02/21 00:47:05;;;;;;;4.05;1.17;;;;;;;-145.06;0.00;60892.56;4842067;28;20281;-87
2022/02/21 00:49:44;;;;;;;;;;;;;;;-145.06;0.00;60892.56;4832314;28;20033;-87
2022/02/21 00:52:24;;;;;;;2.80;1.15;;;;;;;21.08;0.00;60892.56;4834676;28;19960;-88
2022/02/21 00:55:04;;;;;;;4.40;1.45;;;;;;;6.66;0.00;60892.56;4836858;28;20076;-87
2022/02/21 00:57:43;;;;;;;5.28;1.23;;;;;;;-145.06;0.00;60892.56;4849924;28;20033;-88
2022/02/21 01:00:22;;;;;;;3.97;1.20;;;;;;;-145.06;0.00;60892.56;4835002;28;20038;-87
2022/02/21 01:03:01;;;;;;;3.60;1.05;;;;;;;-145.06;0.00;60892.56;4826250;28;20748;-87
2022/02/21 01:05:40;;;;;;;6.57;1.67;;;;;;;-145.06;0.00;60892.56;4831118;28;20042;-87
2022/02/21 01:08:19;;;;;;;2.90;1.00;;;;;;;-145.06;0.00;60892.56;4831620;28;20487;-88
2022/02/21 01:10:58;;;;;;;6.20;1.10;;;;;;;-145.06;0.00;60892.56;4851115;28;20281;-87
2022/02/21 01:13:37;;;;;;;3.80;1.33;;;;;;;-145.06;0.00;60892.56;4856601;28;20093;-86
2022/02/21 01:16:16;;;;;;;4.15;1.20;;;;;;;-145.06;0.00;60892.56;4846525;28;20643;-87
2022/02/21 01:18:56;;;;;;;6.63;1.30;;;;;;;-145.06;0.00;60892.56;4837880;28;20065;-87
2022/02/21 01:21:35;;;;;;;5.13;1.13;;;;;;;-145.06;0.00;60892.56;4839384;28;20269;-88
2022/02/21 01:24:14;;;;;;;4.10;1.25;;;;;;;-145.06;0.00;60892.56;4841549;28;20038;-88
2022/02/21 01:26:53;;;;;;;6.77;1.57;;;;;;;-145.06;0.00;60892.56;4832508;28;20038;-87
2022/02/21 01:29:32;;;;;;;3.37;1.00;;;;;;;-145.06;0.00;60892.56;4828586;28;20273;-88
2022/02/21 01:32:11;;;;;;;2.70;0.82;;;;;;;-145.06;0.00;60892.56;4831910;28;20046;-88
2022/02/21 01:34:50;;;;;;;3.33;0.88;;;;;;;-145.06;0.00;60892.56;4834250;28;20590;-87
2022/02/21 01:37:29;;;;;;;3.80;1.07;;;;;;;-145.06;0.00;60892.56;4837294;28;20041;-87
2022/02/21 01:40:09;;;;;;;5.03;1.42;;;;;;;-145.06;0.00;60892.56;4822485;28;20297;-86
2022/02/21 01:42:48;;;;;;;4.40;1.10;;;;;;;10.68;0.00;60892.56;4835352;28;20041;-87
2022/02/21 01:45:27;;;;;;;8.37;1.30;;;;;;;-145.06;0.00;60892.56;4830495;28;20061;-87
2022/02/21 01:48:06;;;;;;;10.63;1.63;;;;;;;6.72;0.00;60892.56;4835391;28;20038;-88
2022/02/21 01:50:45;;;;;;;7.80;1.55;;;;;;;6.62;0.00;60892.56;4832269;28;20281;-88
2022/02/21 01:53:24;;;;;;;6.30;1.67;;;;;;;6.49;0.00;60892.56;4837548;28;20930;-87
2022/02/21 01:56:03;;;;;;;5.82;1.65;;;;;;;187.52;0.00;60892.56;4843181;28;20034;-86
2022/02/21 01:58:42;;;;;;;5.18;1.42;;;;;;;-145.06;0.00;60892.56;4842204;28;20038;-87
2022/02/21 02:01:21;;;;;;;5.03;1.40;;;;;;;-145.06;0.00;60892.56;4830223;28;20392;-87
2022/02/21 02:04:00;;;;;;;4.68;1.02;;;;;;;-145.06;0.00;60892.56;4832407;28;20030;-87
2022/02/21 02:06:39;;;;;;;5.75;1.10;;;;;;;-145.06;0.00;60892.56;4835930;28;20033;-86
2022/02/21 02:09:18;;;;;;;3.58;1.17;;;;;;;-145.06;0.00;60892.56;4837065;28;20034;-88
2022/02/21 02:11:57;;;;;;;2.55;1.13;;;;;;;-145.06;0.00;60892.56;4836011;28;20038;-87
2022/02/21 02:14:39;;;;;;;4.77;1.27;;;;;;;-145.06;0.00;60892.56;4829733;28;20037;-88
2022/02/21 02:17:18;;;;;;;4.05;1.05;;;;;;;-145.06;0.00;60892.56;4829300;28;20656;-87
2022/02/21 02:19:57;;;;;;;6.23;1.43;;;;;;;-145.06;0.00;60892.56;4831924;28;20041;-87
2022/02/21 02:22:39;;;;;;;3.53;1.17;;;;;;;-145.06;0.00;60892.56;4840004;28;20361;-88
2022/02/21 02:25:18;;;;;;;4.25;1.35;;;;;;;-145.06;0.00;60892.56;4836088;28;20061;-87
2022/02/21 02:27:57;;;;;;;5.20;1.33;;;;;;;-145.06;0.00;60892.56;4835274;28;20029;-88
2022/02/21 02:30:36;;;;;;;3.40;1.30;;;;;;;-145.06;0.00;60892.56;4832787;28;20034;-87
2022/02/21 02:33:15;;;;;;;6.97;1.55;;;;;;;-145.06;0.00;60892.56;4830304;28;20129;-88
2022/02/21 02:35:54;;;;;;;3.78;1.25;;;;;;;-145.06;0.00;60892.56;4835097;28;20752;-86
2022/02/21 02:38:36;;;;;;;4.43;1.35;;;;;;;-145.06;0.00;60892.56;4834485;28;20025;-88
2022/02/21 02:41:14;;;;;;;5.88;1.70;;;;;;;-145.06;0.00;60892.56;4837711;28;20037;-87
2022/02/21 02:43:53;;;;;;;6.38;1.55;;;;;;;-145.06;0.00;60892.56;4834288;28;20033;-88
2022/02/21 02:46:32;;;;;;;7.30;1.67;;;;;;;-145.06;0.00;60892.56;4818108;28;20034;-88
2022/02/21 02:49:11;;;;;;;5.17;1.57;;;;;;;-145.06;0.00;60892.56;4825281;28;20484;-88
2022/02/21 02:51:50;;;;;;;3.90;1.17;;;;;;;-145.06;0.00;60892.56;4832554;28;20269;-87
2022/02/21 02:54:29;;;;;;;6.63;1.88;;;;;;;-145.06;0.00;60892.56;4832419;28;20376;-87
2022/02/21 02:57:09;;;;;;;7.70;1.55;;;;;;;-145.06;0.00;60892.56;4832441;28;20484;-88
2022/02/21 02:59:48;;;;;;;6.82;1.58;;;;;;;5.41;0.00;60892.56;4848591;28;20069;-87
2022/02/21 03:02:27;;;;;;;4.85;1.30;;;;;;;-145.06;0.00;60892.56;4829662;28;20037;-88
2022/02/21 03:05:06;;;;;;;3.78;1.38;;;;;;;-145.06;0.00;60892.56;4841934;28;20022;-88
2022/02/21 03:07:45;;;;;;;3.40;1.38;;;;;;;-145.06;0.00;60892.56;4838624;28;20045;-88
2022/02/21 03:10:24;;;;;;;6.10;1.40;;;;;;;-145.06;0.00;60892.56;4839064;28;20033;-88
2022/02/21 03:13:03;;;;;;;4.93;1.60;;;;;;;-145.06;0.00;60892.56;4835836;28;20674;-88
2022/02/21 03:15:42;;;;;;;4.20;1.17;;;;;;;-145.06;0.00;60892.56;4843021;28;20472;-88
2022/02/21 03:18:22;;;;;;;4.05;1.10;;;;;;;-145.06;0.00;60892.56;4839016;28;20364;-88
2022/02/21 03:21:01;;;;;;;6.07;1.30;;;;;;;-145.06;0.00;60892.56;4835113;28;20034;-88
2022/02/21 03:23:39;;;;;;;4.97;1.67;;;;;;;-145.06;0.00;60892.56;4831736;28;20030;-88
2022/02/21 03:26:18;;;;;;;7.33;1.57;;;;;;;-145.06;0.00;60892.56;4833739;28;20034;-88
2022/02/21 03:28:57;;;;;;;4.73;1.33;;;;;;;-145.06;0.00;60892.56;4817559;28;20030;-88
2022/02/21 03:31:36;;;;;;;2.75;1.10;;;;;;;-145.06;0.00;60892.56;4830529;28;20281;-87
2022/02/21 03:34:15;;;;;;;4.83;1.60;;;;;;;-145.06;0.00;60892.56;4834136;28;20441;-88
2022/02/21 03:36:54;;;;;;;6.60;1.77;;;;;;;-145.06;0.00;60892.56;4832794;28;20264;-87
2022/02/21 03:39:33;;;;;;;4.80;1.20;;;;;;;-145.06;0.00;60892.56;4833574;28;20057;-87
2022/02/21 03:42:12;;;;;;;2.57;1.33;;;;;;;-145.06;0.00;60892.56;4831004;28;20261;-87
2022/02/21 03:44:51;;;;;;;4.73;1.33;;;;;;;-145.06;0.00;60892.56;4817100;28;20282;-88
2022/02/21 03:47:30;;;;;;;3.53;1.50;;;;;;;-145.06;0.00;60892.56;4827545;28;20319;-87
2022/02/21 03:50:09;;;;;;;7.10;1.70;;;;;;;-145.06;0.00;60892.56;4839171;28;20034;-87
2022/02/21 03:52:48;;;;;;;6.07;1.50;;;;;;;-145.06;0.00;60892.56;4833823;28;20063;-88
2022/02/21 03:55:27;;;;;;;6.35;1.52;;;;;;;-145.06;0.00;60892.56;4834456;28;20037;-87
2022/02/21 03:58:06;;;;;;;7.55;1.88;;;;;;;-145.06;0.00;60892.56;4835857;28;20031;-88
2022/02/21 04:00:45;;;;;;;8.55;1.98;;;;;;;-145.06;0.00;60892.56;4842076;28;20041;-88
2022/02/21 04:03:24;;;;;;;4.55;1.38;;;;;;;-145.06;0.00;60892.56;4842201;28;20038;-87
2022/02/21 04:06:03;;;;;;;4.73;1.37;;;;;;;-145.06;0.00;60892.56;4842932;28;20061;-88
2022/02/21 04:08:42;;;;;;;6.30;1.40;;;;;;;-145.06;0.00;60892.56;4839374;28;20033;-87
2022/02/21 04:11:21;;;;;;;5.85;1.65;;;;;;;-145.06;0.00;60892.56;4837896;28;20026;-88
2022/02/21 04:14:00;;;;;;;9.63;1.90;;;;;;;-145.06;0.00;60892.56;4838219;28;20030;-88
2022/02/21 04:16:39;;;;;;;8.32;2.10;;;;;;;-145.06;0.00;60892.56;4826607;28;20037;-88
2022/02/21 04:19:18;;;;;;;6.57;1.77;;;;;;;-145.06;0.00;60892.56;4836660;28;20073;-88
2022/02/21 04:21:59;;;;;;;2.78;1.23;;;;;;;-145.06;0.00;60892.56;4835406;28;20520;-88
2022/02/21 04:24:38;;;;;;;5.57;1.30;;;;;;;-145.06;0.00;60892.56;4832740;28;20062;-88
2022/02/21 04:27:17;;;;;;;8.88;1.88;;;;;;;5.44;0.00;60892.56;4844323;28;20125;-87
2022/02/21 04:29:56;;;;;;;7.75;1.90;;;;;;;5.38;0.00;60892.56;4844321;28;20392;-89
2022/02/21 04:32:37;;;;;;;6.13;1.77;;;;;;;5.49;0.00;60892.56;4849135;28;20038;-87
2022/02/21 04:35:18;;;;;;;6.75;1.95;;;;;;;-145.06;0.00;60892.56;4854395;28;20478;-86
2022/02/21 04:37:57;;;;;;;9.82;2.53;;;;;;;-145.06;0.00;60892.56;4833985;28;20053;-87
2022/02/21 04:40:36;;;;;;;10.38;2.95;;;;;;;5.31;0.00;60892.56;4838176;28;20532;-87
2022/02/21 04:43:15;;;;;;;6.00;2.23;;;;;;;-145.06;0.00;60892.56;4831030;28;20049;-87
2022/02/21 04:45:55;;;;;;;7.95;2.00;;;;;;;-145.06;0.00;60892.56;4838440;28;20277;-88
2022/02/21 04:48:34;;;;;;;8.80;2.20;;;;;;;-145.06;0.00;60892.56;4837345;28;21586;-87
2022/02/21 04:51:14;;;;;;;8.30;2.50;;;;;;;-145.06;0.00;60892.56;4837977;28;20854;-88
2022/02/21 04:53:53;;;;;;;7.43;1.92;;;;;;;-145.06;0.00;60892.56;4833370;28;20029;-88
2022/02/21 04:56:32;;;;;;;8.23;1.77;;;;;;;5.32;0.00;60892.56;4836070;28;20104;-89
2022/02/21 04:59:11;;;;;;;3.63;1.50;;;;;;;-145.06;0.00;60892.56;4846445;28;20123;-87
2022/02/21 05:01:49;;;;;;;8.15;1.77;;;;;;;-145.06;0.00;60892.56;4831406;28;20601;-88
2022/02/21 05:04:28;;;;;;;4.10;1.60;;;;;;;-145.06;0.00;60892.56;4833548;28;20369;-88
2022/02/21 05:07:07;;;;;;;7.37;1.50;;;;;;;-145.06;0.00;60892.56;4837823;28;20033;-87
2022/02/21 05:09:46;;;;;;;6.93;1.63;;;;;;;5.26;0.00;60892.56;4837788;28;20284;-87
2022/02/21 05:12:25;;;;;;;5.50;1.97;;;;;;;187.52;0.00;60892.56;4828593;28;20038;-88
2022/02/21 05:15:06;;;;;;;6.50;1.73;;;;;;;5.20;0.00;60892.56;4839937;28;20033;-89
2022/02/21 05:17:45;;;;;;;8.18;2.40;;;;;;;5.49;0.00;60892.56;4836506;28;20273;-89
2022/02/21 05:20:24;;;;;;;5.70;2.03;;;;;;;5.20;0.00;60892.56;4820963;28;20034;-89
2022/02/21 05:23:03;;;;;;;6.03;2.07;;;;;;;5.18;0.00;60892.56;4833842;28;20265;-89
2022/02/21 05:25:42;;;;;;;6.10;1.80;;;;;;;5.19;0.00;60892.56;4833357;28;20321;-88
2022/02/21 05:28:21;;;;;;;5.03;1.65;;;;;;;-145.06;0.00;60892.56;4838694;28;20030;-89
2022/02/21 05:31:00;;;;;;;6.10;1.65;;;;;;;-145.06;0.00;60892.56;4837677;28;20116;-89
2022/02/21 05:33:39;;;;;;;7.30;1.80;;;;;;;-145.06;0.00;60892.56;4837734;28;20026;-89
2022/02/21 05:36:18;;;;;;;6.72;2.03;;;;;;;-145.06;0.00;60892.56;4835053;28;20077;-89
2022/02/21 05:38:57;;;;;;;6.20;1.83;;;;;;;-145.06;0.00;60892.56;4835202;28;20081;-89
2022/02/21 05:41:36;;;;;;;6.65;2.30;;;;;;;-145.06;0.00;60892.56;4831498;28;20265;-89
2022/02/21 05:44:15;;;;;;;7.50;2.03;;;;;;;5.23;0.00;60892.56;4830731;28;20488;-88
2022/02/21 05:46:54;;;;;;;7.03;2.20;;;;;;;5.25;0.00;60892.56;4833464;28;20113;-88
2022/02/21 05:49:33;;;;;;;7.47;2.13;;;;;;;-145.06;0.00;60892.56;4829840;28;20055;-88
2022/02/21 05:52:12;;;;;;;10.43;2.28;;;;;;;-145.06;0.00;60892.56;4831314;28;20093;-88
2022/02/21 05:54:51;;;;;;;7.50;2.17;;;;;;;-145.06;0.00;60892.56;4837959;28;20682;-89
2022/02/21 05:57:30;;;;;;;12.73;2.30;;;;;;;-145.06;0.00;60892.56;4831165;28;20045;-88
2022/02/21 06:00:09;;;;;;;6.55;1.80;;;;;;;-145.06;0.00;60892.56;4837943;28;20807;-88
2022/02/21 06:02:48;;;;;;;7.75;1.83;;;;;;;-145.06;0.00;60892.56;4833378;28;20030;-88
2022/02/21 06:05:27;;;;;;;8.03;2.10;;;;;;;-145.06;0.00;60892.56;4827730;28;20037;-88
2022/02/21 06:08:06;;;;;;;5.68;1.50;;;;;;;5.34;0.00;60892.56;4832270;28;20869;-89
2022/02/21 06:10:46;;;;;;;5.30;1.67;;;;;;;10.68;0.00;60892.56;4820328;28;20042;-89
2022/02/21 06:13:25;;;;;;;7.85;2.00;;;;;;;-145.06;0.00;60892.56;4832545;28;20033;-89
2022/02/21 06:16:04;;;;;;;11.23;2.23;;;;;;;-145.06;0.00;60892.56;4835483;28;20038;-88
2022/02/21 06:18:43;;;;;;;7.28;2.00;;;;;;;5.29;0.00;60892.56;4834498;28;20034;-88
2022/02/21 06:21:22;;;;;;;5.13;1.83;;;;;;;-145.06;0.00;60892.56;4833293;28;20037;-88
2022/02/21 06:24:01;;;;;;;7.03;1.75;;;;;;;-145.06;0.00;60892.56;4827748;28;20561;-89
2022/02/21 06:26:40;;;;;;;7.10;1.90;;;;;;;-145.06;0.00;60892.56;4835382;28;20376;-89
2022/02/21 06:29:20;;;;;;;5.85;2.05;;;;;;;-145.06;0.00;60892.56;4834022;28;20061;-87
2022/02/21 06:31:59;;;;;;;6.93;1.52;;;;;;;5.36;0.00;60892.56;4847877;28;22092;-88
2022/02/21 06:34:39;;;;;;;5.35;1.52;;;;;;;5.33;0.00;60892.56;4831602;28;20445;-89
2022/02/21 06:37:18;;;;;;;4.30;1.57;;;;;;;5.31;0.00;60892.56;4834168;28;20037;-89
2022/02/21 06:39:57;;;;;;;;;;;;;;;-145.06;0.00;60892.56;4828132;28;20269;-87
2022/02/21 06:42:37;;;;;;;4.93;1.80;;;;;;;5.29;0.00;60892.56;4826792;28;19964;-88
2022/02/21 06:45:16;;;;;;;7.28;1.60;;;;;;;-145.06;0.00;60892.56;4841731;28;20061;-89
2022/02/21 06:47:57;;;;;;;4.80;1.65;;;;;;;-145.06;0.00;60892.56;4832594;28;20037;-88
2022/02/21 06:50:37;;;;;;;3.90;1.60;;;;;;;-145.06;0.00;60892.56;4834907;28;20030;-89
2022/02/21 06:53:16;;;;;;;5.47;1.45;;;;;;;5.28;0.00;60892.56;4832885;28;20038;-88
2022/02/21 06:55:55;;;;;;;4.63;1.50;;;;;;;-145.06;0.00;60892.56;4836595;28;20397;-88
2022/02/21 06:58:34;;;;;;;5.80;1.70;;;;;;;-145.06;0.00;60892.56;4824799;28;20771;-88
2022/02/21 07:01:13;;;;;;;7.85;1.70;;;;;;;-145.06;0.00;60892.56;4836640;28;20292;-89
2022/02/21 07:03:54;;;;;;;11.90;2.28;;;;;;;-145.06;0.00;60892.56;4837279;28;20042;-88
2022/02/21 07:06:35;;;;;;;6.68;1.73;;;;;;;-145.06;0.00;60892.56;4834410;28;20377;-88
2022/02/21 07:09:14;;;;;;;6.70;1.80;;;;;;;-145.06;0.00;60892.56;4830343;28;20069;-89
2022/02/21 07:11:53;;;;;;;7.30;2.13;;;;;;;-145.06;0.00;60892.56;4827902;28;20460;-89
2022/02/21 07:14:35;;;;;;;5.47;1.60;;;;;;;187.52;0.00;60892.56;4830610;28;20265;-89
2022/02/21 07:17:14;;;;;;;4.30;1.40;;;;;;;-145.06;0.00;60892.56;4836307;28;20029;-88
2022/02/21 07:19:55;;;;;;;2.17;1.05;;;;;;;-145.06;0.00;60892.56;4836770;28;20033;-88
2022/02/21 07:22:34;;;;;;;4.25;1.20;;;;;;;-145.06;0.00;60892.56;4830933;28;20034;-88
2022/02/21 07:25:15;;;;;;;6.33;1.60;;;;;;;187.52;0.00;60892.56;4820177;28;20026;-88
2022/02/21 07:27:54;;;;;;;7.65;1.83;;;;;;;-145.06;0.00;60892.56;4837445;28;20369;-90
2022/02/21 07:30:33;;;;;;;3.17;1.30;;;;;;;-145.06;0.00;60892.56;4836724;28;20061;-88
2022/02/21 07:33:12;;;;;;;9.02;1.83;;;;;;;5.22;0.00;60892.56;4840038;28;20484;-88
2022/02/21 07:35:52;;;;;;;5.00;1.80;;;;;;;-145.06;0.00;60892.56;4830996;28;20042;-89
2022/02/21 07:38:30;;;;;;;4.93;1.70;;;;;;;187.52;0.00;60892.56;4828749;28;20766;-88
2022/02/21 07:41:20;;;;;;;7.03;1.63;;;;;;;-145.06;0.00;60892.56;4821675;28;20030;-89
2022/02/21 07:44:00;;;;;;;7.88;2.15;;;;;;;5.27;0.00;60892.56;4834531;28;20030;-88
2022/02/21 07:46:39;;;;;;;4.88;1.50;;;;;;;-145.06;0.00;60892.56;4841092;28;20079;-89
2022/02/21 07:49:19;;;;;;;6.93;1.58;;;;;;;-145.06;0.00;60892.56;4848789;28;20130;-89
2022/02/21 07:51:58;;;;;;;4.03;1.35;;;;;;;-145.06;0.00;60892.56;4849617;28;20013;-88
2022/02/21 07:54:37;;;;;;;5.55;1.52;;;;;;;-145.06;0.00;60892.56;4844976;28;20029;-89
2022/02/21 07:57:16;;;;;;;5.17;1.53;;;;;;;-145.06;0.00;60892.56;4828339;28;20034;-90
2022/02/21 07:59:57;;;;;;;5.70;1.63;;;;;;;-145.06;0.00;60892.56;4829769;28;20488;-90
2022/02/21 08:02:37;;;;;;;7.95;1.73;;;;;;;5.39;0.00;60892.56;4840611;28;20069;-90
2022/02/21 08:05:16;;;;;;;;;;;;;;;-145.06;0.00;60892.56;4839992;28;20065;-90
2022/02/21 08:07:55;;;;;;;7.85;1.70;;;;;;;-145.06;0.00;60892.56;4845088;28;19913;-90
2022/02/21 08:10:35;;;;;;;4.80;1.65;;;;;;;10.68;0.00;60892.56;4841342;28;20034;-89
2022/02/21 08:13:14;;;;;;;;;;;;;;;-145.06;0.00;60892.56;4840602;28;20046;-91
2022/02/21 08:15:52;;;;;;;3.97;1.38;;;;;;;-145.06;0.00;60892.56;4838061;28;20007;-89
2022/02/21 08:18:33;;;;;;;4.53;1.17;;;;;;;-145.06;0.00;60892.56;4836434;28;20030;-90
2022/02/21 08:21:12;;;;;;;7.38;1.52;;;;;;;-145.06;0.00;60892.56;4835157;28;20034;-90
2022/02/21 08:23:51;;;;;;;4.00;1.33;;;;;;;-145.06;0.00;60892.56;4836116;28;20030;-90
2022/02/21 08:26:30;;;;;;;7.20;1.90;;;;;;;-145.06;0.00;60892.56;4835030;28;20037;-89
2022/02/21 08:29:10;;;;;;;;;;;;;;;187.52;0.00;60892.56;4840733;28;20070;-90
2022/02/21 08:31:49;;;;;;;5.97;1.23;;;;;;;-145.06;0.00;60892.56;4839953;28;20694;-90
2022/02/21 08:34:29;;;;;;;3.30;1.45;;;;;;;-145.06;0.00;60892.56;4840424;28;20265;-90
2022/02/21 08:37:08;;;;;;;5.20;1.70;;;;;;;-145.06;0.00;60892.56;4823801;28;20030;-91
2022/02/21 08:39:47;;;;;;;7.87;1.63;;;;;;;-145.06;0.00;60892.56;4839639;28;20307;-90
2022/02/21 08:42:25;;;;;;;7.07;1.60;;;;;;;-145.06;0.00;60892.56;4839233;28;20034;-90
2022/02/21 08:45:06;;;;;;;5.20;2.00;;;;;;;-145.06;0.00;60892.56;4838409;28;20021;-90
2022/02/21 08:47:45;;;;;;;4.50;1.40;;;;;;;-145.06;0.00;60892.56;4839911;28;20030;-90
2022/02/21 08:50:24;;;;;;;6.38;1.63;;;;;;;-145.06;0.00;60892.56;4826713;28;20029;-90
2022/02/21 08:53:03;;;;;;;5.05;1.50;;;;;;;8.08;0.00;60892.56;4839284;28;20037;-90
2022/02/21 08:55:42;;;;;;;6.68;1.55;;;;;;;-145.06;0.00;60892.56;4836054;28;20026;-90
2022/02/21 08:58:21;;;;;;;7.07;1.40;;;;;;;-145.06;0.00;60892.56;4839902;28;20465;-90
2022/02/21 09:01:01;;;;;;;5.97;1.75;;;;;;;-145.06;0.00;60892.56;4839406;28;20026;-90
2022/02/21 09:03:41;;;;;;;5.07;1.63;;;;;;;-145.06;0.00;60892.56;4838682;28;20696;-89
2022/02/21 09:06:19;;;;;;;;;;;;;;;-145.06;0.00;60892.56;4840453;28;20113;-90
2022/02/21 09:08:58;;;;;;;2.95;1.15;;;;;;;-145.06;0.00;60892.56;4838535;28;20391;-89
2022/02/21 09:11:37;;;;;;;3.77;1.60;;;;;;;-145.06;0.00;60892.56;4837795;28;20033;-90
2022/02/21 09:14:18;;;;;;;4.13;1.47;;;;;;;-145.06;0.00;60892.56;4821190;28;20030;-88
2022/02/21 09:16:57;;;;;;;4.97;1.23;;;;;;;-145.06;0.00;60892.56;4833741;28;20029;-90
2022/02/21 09:19:36;;;;;;;5.22;1.58;;;;;;;-145.06;0.00;60892.56;4839286;28;20026;-90
2022/02/21 09:22:15;;;;;;;6.68;1.73;;;;;;;-145.06;0.00;60892.56;4839344;28;20053;-90
2022/02/21 09:24:53;;;;;;;5.50;1.70;;;;;;;-145.06;0.00;60892.56;4838617;28;20058;-90
2022/02/21 09:27:32;;;;;;;6.07;1.65;;;;;;;-145.06;0.00;60892.56;4839458;28;20558;-89
2022/02/21 09:30:12;;;;;;;3.97;1.50;;;;;;;-145.06;0.00;60892.56;4838768;28;20026;-88
2022/02/21 09:32:51;;;;;;;6.10;1.63;;;;;;;-145.06;0.00;60892.56;4838869;28;20033;-89
2022/02/21 09:35:30;;;;;;;5.27;1.80;;;;;;;-145.06;0.00;60892.56;4839170;28;20026;-90
2022/02/21 09:38:09;;;;;;;4.93;1.95;;;;;;;-145.06;0.00;60892.56;4838534;28;20120;-89
2022/02/21 09:40:50;;;;;;;7.70;1.63;;;;;;;-145.06;0.00;60892.56;4831897;28;20037;-90
2022/02/21 09:43:30;;;;;;;4.32;1.42;;;;;;;-145.06;0.00;60892.56;4825059;28;20042;-90
2022/02/21 09:46:12;;;;;;;7.93;1.90;;;;;;;-145.06;0.00;60892.56;4835572;28;20042;-89
2022/02/21 09:48:51;;;;;;;4.03;1.45;;;;;;;7.27;0.00;60892.56;4838425;28;20042;-91
2022/02/21 09:51:30;;;;;;;7.80;2.17;;;;;;;-145.06;0.00;60892.56;4818804;28;20108;-91
2022/02/21 09:54:13;;;;;;;5.03;1.70;;;;;;;-145.06;0.00;60892.56;4837531;28;20500;-89
2022/02/21 09:56:54;;;;;;;9.32;2.33;;;;;;;7.76;0.00;60892.56;4837482;28;20336;-89
2022/02/21 09:59:33;;;;;;;8.35;2.03;;;;;;;-145.06;0.00;60892.56;4839786;28;20026;-90
2022/02/21 10:02:24;;;;;;;9.47;1.80;;;;;;;-145.06;0.00;60892.56;4838953;28;20034;-89
2022/02/21 10:05:28;;;;;;;5.65;2.17;;;;;;;7.58;0.00;60892.56;4837625;28;20495;-88
2022/02/21 10:08:08;;;;;;;6.75;1.90;;;;;;;-145.06;0.00;60892.56;4836650;28;20033;-90
2022/02/21 10:10:53;;;;;;;8.40;1.88;;;;;;;8.08;0.00;60892.56;4838258;28;20037;-89
2022/02/21 10:13:52;;;;;;;4.03;1.80;;;;;;;-145.06;0.00;60892.56;4832009;28;20112;-90
2022/02/21 10:16:46;;;;;;;8.77;1.90;;;;;;;-145.06;0.00;60892.56;4829033;28;20031;-89
2022/02/21 10:19:36;;;;;;;5.03;1.70;;;;;;;-145.06;0.00;60892.56;4827623;28;20041;-89
2022/02/21 10:22:22;;;;;;;8.90;1.52;;;;;;;-145.06;0.00;60892.56;4823145;28;20038;-89
2022/02/21 10:25:13;;;;;;;6.95;1.92;;;;;;;-145.06;0.00;60892.56;4835737;28;20030;-88
2022/02/21 10:27:52;;;;;;;7.28;2.03;;;;;;;-145.06;0.00;60892.56;4817864;28;20361;-90
2022/02/21 10:30:31;;;;;;;7.88;1.63;;;;;;;-145.06;0.00;60892.56;4832897;28;20025;-89
2022/02/21 10:33:12;;;;;;;5.20;1.63;;;;;;;-145.06;0.00;60892.56;4831711;28;20037;-89
2022/02/21 10:35:51;;;;;;;5.30;1.95;;;;;;;-145.06;0.00;60892.56;4836495;28;20037;-89
2022/02/21 10:38:41;;;;;;;6.97;2.03;;;;;;;-145.06;0.00;60892.56;4836679;28;20625;-89
2022/02/21 10:41:22;;;;;;;9.18;1.90;;;;;;;-145.06;0.00;60892.56;4836427;28;20038;-89
2022/02/21 10:44:14;;;;;;;8.95;2.08;;;;;;;8.08;0.00;60892.56;4834404;28;20030;-88
2022/02/21 10:47:00;;;;;;;7.25;2.10;;;;;;;6.77;0.00;60892.56;4835999;28;20029;-87
2022/02/21 10:49:54;;;;;;;8.48;2.38;;;;;;;-145.06;0.00;60892.56;4832865;28;20443;-87
2022/02/21 10:52:35;;;;;;;4.95;2.13;;;;;;;-145.06;0.00;60892.56;4830428;28;20042;-87
2022/02/21 10:55:15;;;;;;;5.53;1.92;;;;;;;-145.06;0.00;60892.56;4836394;28;20034;-88
2022/02/21 10:57:54;;;;;;;7.53;1.90;;;;;;;-145.06;0.00;60892.56;4835285;28;20065;-88
2022/02/21 11:00:33;;;;;;;7.18;1.98;;;;;;;-145.06;0.00;60892.56;4831321;28;20281;-89
2022/02/21 11:03:13;;;;;;;6.53;1.87;;;;;;;-145.06;0.00;60892.56;4836369;28;20038;-88
2022/02/21 11:05:53;;;;;;;;;;;;;;;-145.06;0.00;60892.56;4834442;28;20026;-87
2022/02/21 11:08:33;;;;;;;6.63;1.98;;;;;;;-145.06;0.00;60892.56;4849506;28;19917;-87
2022/02/21 11:11:12;;;;;;;6.75;1.73;;;;;;;-145.06;0.00;60892.56;4833288;28;20045;-87
2022/02/21 11:13:54;;;;;;;5.40;1.40;;;;;;;-145.06;0.00;60892.56;4828216;28;20052;-87
2022/02/21 11:16:34;;;;;;;6.28;1.85;;;;;;;-145.06;0.00;60892.56;4827544;28;20042;-87
2022/02/21 11:19:18;;;;;;;11.60;2.38;;;;;;;-145.06;0.00;60892.56;4828337;28;20120;-88
2022/02/21 11:21:58;;;;;;;7.00;1.90;;;;;;;-145.06;0.00;60892.56;4834800;28;20042;-87
2022/02/21 11:24:43;;;;;;;;;;;;;;;-145.06;0.00;60892.56;4849113;28;20034;-89
2022/02/21 11:27:43;;;;;;;5.85;1.80;;;;;;;-145.06;0.00;60892.56;4842367;28;19925;-88
2022/02/21 11:30:29;;;;;;;8.38;1.88;;;;;;;-145.06;0.00;60892.56;4827961;28;20369;-88
2022/02/21 11:33:13;;;;;;;6.57;1.90;;;;;;;-145.06;0.00;60892.56;4828726;28;20038;-87
2022/02/21 11:36:13;;;;;;;6.97;1.75;;;;;;;-145.06;0.00;60892.56;4828299;28;20058;-88
2022/02/21 11:38:53;;;;;;;4.07;1.50;;;;;;;-145.06;0.00;60892.56;4823298;28;20030;-88
2022/02/21 11:41:36;;;;;;;6.80;1.65;;;;;;;-145.06;0.00;60892.56;4826089;28;20035;-88
2022/02/21 11:44:20;;;;;;;4.50;1.50;;;;;;;-145.06;0.00;60892.56;4830301;28;20428;-88
2022/02/21 11:47:10;;;;;;;7.75;1.67;;;;;;;-145.06;0.00;60892.56;4832587;28;20029;-89
2022/02/21 11:49:55;;;;;;;6.70;2.10;;;;;;;-145.06;0.00;60892.56;4826269;28;20042;-87
2022/02/21 11:52:36;;;;;;;8.05;2.08;;;;;;;-145.06;0.00;60892.56;4827426;28;20029;-87
2022/02/21 11:55:38;;;;;;;6.43;1.52;;;;;;;-145.06;0.00;60892.56;4826956;28;20034;-89
2022/02/21 11:58:27;;;;;;;5.30;1.42;;;;;;;-145.06;0.00;60892.56;4849304;28;20042;-88
2022/02/21 12:01:11;;;;;;;3.50;1.27;;;;;;;-145.06;0.00;60892.56;4828339;28;20034;-88
2022/02/21 12:04:14;;;;;;;6.15;1.67;;;;;;;-145.06;0.00;60892.56;4830715;28;20041;-88
2022/02/21 12:06:59;;;;;;;6.82;2.05;;;;;;;-145.06;0.00;60892.56;4851879;28;20038;-88
2022/02/21 12:10:10;;;;;;;8.57;1.90;;;;;;;-145.06;0.00;60892.56;4826579;28;20033;-88
2022/02/21 12:12:59;;;;;;;8.85;1.60;;;;;;;-145.06;0.00;60892.56;4839860;28;20042;-88
2022/02/21 12:16:05;;;;;;;7.70;1.58;;;;;;;-145.06;0.00;60892.56;4819147;28;20053;-88
2022/02/21 12:18:45;;;;;;;6.38;1.75;;;;;;;-145.06;0.00;60892.56;4833002;28;20054;-87
2022/02/21 12:21:26;;;;;;;;;;;;;;;-145.06;0.00;60892.56;4821813;28;20735;-85
2022/02/21 12:24:07;;;;;;;3.75;1.35;;;;;;;-145.06;0.00;60892.56;4825927;28;19925;-87
2022/02/21 12:26:46;;;;;;;5.45;1.58;;;;;;;-145.06;0.00;60892.56;4818845;28;20038;-86
2022/02/21 12:29:26;;;;;;;6.73;1.77;;;;;;;-145.06;0.00;60892.56;4823125;28;20050;-85
2022/02/21 12:32:06;;;;;;;;;;;;;;;-145.06;0.00;60892.56;4826609;28;20089;-85
2022/02/21 12:34:48;;;;;;;5.18;1.60;;;;;;;-145.06;0.00;60892.56;4825372;28;19920;-86